sensor_id;sensor_type;location;lat;lon;timestamp;temperature;humidity
51091;DHT22;37136;43.614;3.908;2022-10-18T00:01:53;19.20;17.30
51091;DHT22;37136;43.614;3.908;2022-10-18T00:04:19;19.10;17.10
51091;DHT22;37136;43.614;3.908;2022-10-18T00:06:46;19.10;15.50
51091;DHT22;37136;43.614;3.908;2022-10-18T00:09:12;19.10;13.80
51091;DHT22;37136;43.614;3.908;2022-10-18T00:11:37;19.10;14.10
51091;DHT22;37136;43.614;3.908;2022-10-18T00:14:03;19.10;12.40
51091;DHT22;37136;43.614;3.908;2022-10-18T00:16:29;19.20;11.80
51091;DHT22;37136;43.614;3.908;2022-10-18T00:18:55;19.10;13.00
51091;DHT22;37136;43.614;3.908;2022-10-18T00:21:23;19.10;14.10
51091;DHT22;37136;43.614;3.908;2022-10-18T00:23:51;19.00;16.70
51091;DHT22;37136;43.614;3.908;2022-10-18T00:26:22;19.10;17.20
51091;DHT22;37136;43.614;3.908;2022-10-18T00:29:00;19.10;15.80
51091;DHT22;37136;43.614;3.908;2022-10-18T00:31:28;19.10;15.80
51091;DHT22;37136;43.614;3.908;2022-10-18T00:33:57;19.10;17.60
51091;DHT22;37136;43.614;3.908;2022-10-18T00:36:24;19.00;17.70
51091;DHT22;37136;43.614;3.908;2022-10-18T00:38:50;19.10;17.30
51091;DHT22;37136;43.614;3.908;2022-10-18T00:41:21;19.20;16.70
51091;DHT22;37136;43.614;3.908;2022-10-18T00:46:20;19.20;16.70
51091;DHT22;37136;43.614;3.908;2022-10-18T00:48:46;19.20;17.70
51091;DHT22;37136;43.614;3.908;2022-10-18T00:51:12;19.20;18.50
51091;DHT22;37136;43.614;3.908;2022-10-18T00:53:39;19.30;18.80
51091;DHT22;37136;43.614;3.908;2022-10-18T00:56:05;19.20;18.70
51091;DHT22;37136;43.614;3.908;2022-10-18T00:58:32;19.20;19.70
51091;DHT22;37136;43.614;3.908;2022-10-18T01:00:58;19.20;20.10
51091;DHT22;37136;43.614;3.908;2022-10-18T01:03:24;19.20;20.70
51091;DHT22;37136;43.614;3.908;2022-10-18T01:05:50;19.20;21.20
51091;DHT22;37136;43.614;3.908;2022-10-18T01:08:59;19.20;21.00
51091;DHT22;37136;43.614;3.908;2022-10-18T01:14:08;19.20;22.50
51091;DHT22;37136;43.614;3.908;2022-10-18T01:16:55;19.10;23.10
51091;DHT22;37136;43.614;3.908;2022-10-18T01:25:05;19.30;23.30
51091;DHT22;37136;43.614;3.908;2022-10-18T01:27:55;19.20;23.50
51091;DHT22;37136;43.614;3.908;2022-10-18T01:36:04;19.20;23.90
51091;DHT22;37136;43.614;3.908;2022-10-18T01:38:32;19.20;23.90
51091;DHT22;37136;43.614;3.908;2022-10-18T01:41:01;19.30;24.30
51091;DHT22;37136;43.614;3.908;2022-10-18T01:43:28;19.30;24.30
51091;DHT22;37136;43.614;3.908;2022-10-18T01:45:55;19.20;24.40
51091;DHT22;37136;43.614;3.908;2022-10-18T01:48:23;19.30;24.50
51091;DHT22;37136;43.614;3.908;2022-10-18T01:50:51;19.30;24.50
51091;DHT22;37136;43.614;3.908;2022-10-18T01:53:31;19.30;24.70
51091;DHT22;37136;43.614;3.908;2022-10-18T01:59:05;19.30;24.40
51091;DHT22;37136;43.614;3.908;2022-10-18T02:13:15;19.30;24.70
51091;DHT22;37136;43.614;3.908;2022-10-18T02:15:45;19.30;24.90
51091;DHT22;37136;43.614;3.908;2022-10-18T02:18:18;19.20;25.00
51091;DHT22;37136;43.614;3.908;2022-10-18T02:20:47;19.30;27.60
51091;DHT22;37136;43.614;3.908;2022-10-18T02:23:14;19.30;25.00
51091;DHT22;37136;43.614;3.908;2022-10-18T02:25:40;19.40;24.80
51091;DHT22;37136;43.614;3.908;2022-10-18T02:28:06;19.30;25.20
51091;DHT22;37136;43.614;3.908;2022-10-18T02:30:57;19.40;24.80
51091;DHT22;37136;43.614;3.908;2022-10-18T02:33:28;19.40;24.60
51091;DHT22;37136;43.614;3.908;2022-10-18T02:36:01;19.30;24.90
51091;DHT22;37136;43.614;3.908;2022-10-18T02:38:30;19.30;24.80
51091;DHT22;37136;43.614;3.908;2022-10-18T02:40:57;19.30;25.00
51091;DHT22;37136;43.614;3.908;2022-10-18T02:43:23;19.20;24.80
51091;DHT22;37136;43.614;3.908;2022-10-18T02:45:49;19.30;24.10
51091;DHT22;37136;43.614;3.908;2022-10-18T02:48:15;19.30;25.10
51091;DHT22;37136;43.614;3.908;2022-10-18T02:50:41;19.30;25.00
51091;DHT22;37136;43.614;3.908;2022-10-18T02:53:07;19.20;24.30
51091;DHT22;37136;43.614;3.908;2022-10-18T02:55:33;19.30;23.60
51091;DHT22;37136;43.614;3.908;2022-10-18T02:57:58;19.20;23.90
51091;DHT22;37136;43.614;3.908;2022-10-18T03:00:24;19.10;24.30
51091;DHT22;37136;43.614;3.908;2022-10-18T03:02:50;19.20;24.10
51091;DHT22;37136;43.614;3.908;2022-10-18T03:05:18;19.20;26.20
51091;DHT22;37136;43.614;3.908;2022-10-18T03:07:44;19.20;22.90
51091;DHT22;37136;43.614;3.908;2022-10-18T03:10:10;19.20;22.90
51091;DHT22;37136;43.614;3.908;2022-10-18T03:12:35;19.20;23.10
51091;DHT22;37136;43.614;3.908;2022-10-18T03:15:01;19.20;22.70
51091;DHT22;37136;43.614;3.908;2022-10-18T03:17:27;19.20;22.20
51091;DHT22;37136;43.614;3.908;2022-10-18T03:19:53;19.20;22.40
51091;DHT22;37136;43.614;3.908;2022-10-18T03:22:19;19.20;21.70
51091;DHT22;37136;43.614;3.908;2022-10-18T03:24:45;19.20;21.30
51091;DHT22;37136;43.614;3.908;2022-10-18T03:27:11;19.20;20.60
51091;DHT22;37136;43.614;3.908;2022-10-18T03:29:36;19.10;21.00
51091;DHT22;37136;43.614;3.908;2022-10-18T03:32:02;19.20;20.70
51091;DHT22;37136;43.614;3.908;2022-10-18T03:34:28;19.10;20.90
51091;DHT22;37136;43.614;3.908;2022-10-18T03:36:54;19.20;21.60
51091;DHT22;37136;43.614;3.908;2022-10-18T03:39:21;19.10;21.20
51091;DHT22;37136;43.614;3.908;2022-10-18T03:41:47;19.10;21.20
51091;DHT22;37136;43.614;3.908;2022-10-18T03:44:13;19.00;21.50
51091;DHT22;37136;43.614;3.908;2022-10-18T03:46:39;19.10;21.70
51091;DHT22;37136;43.614;3.908;2022-10-18T03:49:05;19.10;21.00
51091;DHT22;37136;43.614;3.908;2022-10-18T03:51:30;19.10;20.50
51091;DHT22;37136;43.614;3.908;2022-10-18T03:53:56;19.10;21.00
51091;DHT22;37136;43.614;3.908;2022-10-18T03:56:22;19.00;20.70
51091;DHT22;37136;43.614;3.908;2022-10-18T03:58:48;19.00;22.00
51091;DHT22;37136;43.614;3.908;2022-10-18T04:01:14;19.10;21.10
51091;DHT22;37136;43.614;3.908;2022-10-18T04:03:39;19.00;21.50
51091;DHT22;37136;43.614;3.908;2022-10-18T04:06:06;19.00;23.00
51091;DHT22;37136;43.614;3.908;2022-10-18T04:08:34;19.00;23.30
51091;DHT22;37136;43.614;3.908;2022-10-18T04:11:07;19.00;22.70
51091;DHT22;37136;43.614;3.908;2022-10-18T04:13:33;19.10;22.20
51091;DHT22;37136;43.614;3.908;2022-10-18T04:15:59;19.10;22.90
51091;DHT22;37136;43.614;3.908;2022-10-18T04:18:25;19.10;23.70
51091;DHT22;37136;43.614;3.908;2022-10-18T04:20:51;19.20;23.80
51091;DHT22;37136;43.614;3.908;2022-10-18T04:23:17;19.20;23.90
51091;DHT22;37136;43.614;3.908;2022-10-18T04:25:43;19.10;24.10
51091;DHT22;37136;43.614;3.908;2022-10-18T04:28:09;19.10;24.20
51091;DHT22;37136;43.614;3.908;2022-10-18T04:30:34;19.10;27.60
51091;DHT22;37136;43.614;3.908;2022-10-18T04:33:00;19.10;24.90
51091;DHT22;37136;43.614;3.908;2022-10-18T04:35:26;19.10;25.30
51091;DHT22;37136;43.614;3.908;2022-10-18T04:37:53;19.10;25.10
51091;DHT22;37136;43.614;3.908;2022-10-18T04:40:19;19.10;25.00
51091;DHT22;37136;43.614;3.908;2022-10-18T04:42:46;19.20;25.50
51091;DHT22;37136;43.614;3.908;2022-10-18T04:45:12;19.20;25.80
51091;DHT22;37136;43.614;3.908;2022-10-18T04:47:38;19.20;25.40
51091;DHT22;37136;43.614;3.908;2022-10-18T04:50:04;19.20;25.40
51091;DHT22;37136;43.614;3.908;2022-10-18T04:52:30;19.20;25.60
51091;DHT22;37136;43.614;3.908;2022-10-18T04:54:56;19.10;25.40
51091;DHT22;37136;43.614;3.908;2022-10-18T04:57:22;19.10;25.80
51091;DHT22;37136;43.614;3.908;2022-10-18T04:59:48;19.10;25.70
51091;DHT22;37136;43.614;3.908;2022-10-18T05:02:13;19.00;26.10
51091;DHT22;37136;43.614;3.908;2022-10-18T05:04:39;19.10;26.20
51091;DHT22;37136;43.614;3.908;2022-10-18T05:07:05;19.10;26.20
51091;DHT22;37136;43.614;3.908;2022-10-18T05:09:32;19.10;26.60
51091;DHT22;37136;43.614;3.908;2022-10-18T05:11:57;19.00;26.20
51091;DHT22;37136;43.614;3.908;2022-10-18T05:14:23;19.00;26.30
51091;DHT22;37136;43.614;3.908;2022-10-18T05:16:49;19.00;26.30
51091;DHT22;37136;43.614;3.908;2022-10-18T05:19:15;19.00;26.40
51091;DHT22;37136;43.614;3.908;2022-10-18T05:21:41;19.10;26.50
51091;DHT22;37136;43.614;3.908;2022-10-18T05:24:06;19.10;26.60
51091;DHT22;37136;43.614;3.908;2022-10-18T05:26:34;19.10;26.30
51091;DHT22;37136;43.614;3.908;2022-10-18T05:29:00;19.10;26.10
51091;DHT22;37136;43.614;3.908;2022-10-18T05:31:26;19.10;26.00
51091;DHT22;37136;43.614;3.908;2022-10-18T05:33:52;19.10;25.80
51091;DHT22;37136;43.614;3.908;2022-10-18T05:36:17;19.10;25.40
51091;DHT22;37136;43.614;3.908;2022-10-18T05:38:43;19.10;25.80
51091;DHT22;37136;43.614;3.908;2022-10-18T05:41:11;19.10;27.90
51091;DHT22;37136;43.614;3.908;2022-10-18T05:43:37;19.10;25.20
51091;DHT22;37136;43.614;3.908;2022-10-18T05:46:03;19.10;24.60
51091;DHT22;37136;43.614;3.908;2022-10-18T05:48:32;19.10;24.40
51091;DHT22;37136;43.614;3.908;2022-10-18T05:50:59;19.20;25.10
51091;DHT22;37136;43.614;3.908;2022-10-18T05:53:25;19.10;25.10
51091;DHT22;37136;43.614;3.908;2022-10-18T05:55:51;19.20;24.90
51091;DHT22;37136;43.614;3.908;2022-10-18T05:58:17;19.10;24.20
51091;DHT22;37136;43.614;3.908;2022-10-18T06:00:43;19.10;24.00
51091;DHT22;37136;43.614;3.908;2022-10-18T06:03:09;19.20;23.80
51091;DHT22;37136;43.614;3.908;2022-10-18T06:05:34;19.10;23.30
51091;DHT22;37136;43.614;3.908;2022-10-18T06:08:00;19.10;23.20
51091;DHT22;37136;43.614;3.908;2022-10-18T06:10:26;19.10;23.30
51091;DHT22;37136;43.614;3.908;2022-10-18T06:12:52;19.20;23.20
51091;DHT22;37136;43.614;3.908;2022-10-18T06:15:18;19.20;23.00
51091;DHT22;37136;43.614;3.908;2022-10-18T06:17:44;19.10;22.70
51091;DHT22;37136;43.614;3.908;2022-10-18T06:20:09;19.10;23.00
51091;DHT22;37136;43.614;3.908;2022-10-18T06:22:35;19.10;23.10
51091;DHT22;37136;43.614;3.908;2022-10-18T06:25:01;19.00;22.50
51091;DHT22;37136;43.614;3.908;2022-10-18T06:27:27;19.00;23.00
51091;DHT22;37136;43.614;3.908;2022-10-18T06:29:53;19.10;22.00
51091;DHT22;37136;43.614;3.908;2022-10-18T06:32:18;19.00;23.10
51091;DHT22;37136;43.614;3.908;2022-10-18T06:34:44;19.10;20.40
51091;DHT22;37136;43.614;3.908;2022-10-18T06:37:10;19.10;19.00
51091;DHT22;37136;43.614;3.908;2022-10-18T06:39:36;19.10;18.10
51091;DHT22;37136;43.614;3.908;2022-10-18T06:42:01;19.10;17.60
51091;DHT22;37136;43.614;3.908;2022-10-18T06:44:27;19.10;18.60
51091;DHT22;37136;43.614;3.908;2022-10-18T06:46:53;19.10;16.60
51091;DHT22;37136;43.614;3.908;2022-10-18T06:49:19;19.20;15.40
51091;DHT22;37136;43.614;3.908;2022-10-18T06:51:44;19.10;15.80
51091;DHT22;37136;43.614;3.908;2022-10-18T06:54:11;19.20;13.30
51091;DHT22;37136;43.614;3.908;2022-10-18T06:56:37;19.20;13.70
51091;DHT22;37136;43.614;3.908;2022-10-18T06:59:03;19.20;14.80
51091;DHT22;37136;43.614;3.908;2022-10-18T07:01:29;19.10;12.80
51091;DHT22;37136;43.614;3.908;2022-10-18T07:03:55;19.20;9.10
51091;DHT22;37136;43.614;3.908;2022-10-18T07:06:22;19.20;8.60
51091;DHT22;37136;43.614;3.908;2022-10-18T07:08:49;19.10;9.10
51091;DHT22;37136;43.614;3.908;2022-10-18T07:11:22;19.30;8.40
51091;DHT22;37136;43.614;3.908;2022-10-18T07:13:52;19.20;8.90
51091;DHT22;37136;43.614;3.908;2022-10-18T07:16:19;19.30;7.80
51091;DHT22;37136;43.614;3.908;2022-10-18T07:18:47;19.30;6.80
51091;DHT22;37136;43.614;3.908;2022-10-18T07:21:15;19.20;5.30
51091;DHT22;37136;43.614;3.908;2022-10-18T07:23:42;19.30;6.00
51091;DHT22;37136;43.614;3.908;2022-10-18T07:26:23;19.30;5.50
51091;DHT22;37136;43.614;3.908;2022-10-18T07:28:55;19.30;2.90
51091;DHT22;37136;43.614;3.908;2022-10-18T07:31:23;19.40;2.90
51091;DHT22;37136;43.614;3.908;2022-10-18T07:33:49;19.50;2.40
51091;DHT22;37136;43.614;3.908;2022-10-18T07:36:15;19.40;1.00
51091;DHT22;37136;43.614;3.908;2022-10-18T07:38:41;19.40;1.00
51091;DHT22;37136;43.614;3.908;2022-10-18T07:41:10;19.40;1.00
51091;DHT22;37136;43.614;3.908;2022-10-18T07:43:39;19.40;1.00
51091;DHT22;37136;43.614;3.908;2022-10-18T07:46:05;19.40;1.40
51091;DHT22;37136;43.614;3.908;2022-10-18T07:48:31;19.40;1.00
51091;DHT22;37136;43.614;3.908;2022-10-18T07:51:01;19.50;1.00
51091;DHT22;37136;43.614;3.908;2022-10-18T07:53:27;19.40;1.00
51091;DHT22;37136;43.614;3.908;2022-10-18T07:56:01;19.50;1.00
51091;DHT22;37136;43.614;3.908;2022-10-18T07:58:27;19.50;1.00
51091;DHT22;37136;43.614;3.908;2022-10-18T08:00:53;19.50;1.00
51091;DHT22;37136;43.614;3.908;2022-10-18T08:03:19;19.60;1.00
51091;DHT22;37136;43.614;3.908;2022-10-18T08:05:52;19.60;1.00
51091;DHT22;37136;43.614;3.908;2022-10-18T08:08:19;19.60;1.00
51091;DHT22;37136;43.614;3.908;2022-10-18T08:10:45;19.60;1.00
51091;DHT22;37136;43.614;3.908;2022-10-18T08:13:11;19.70;1.00
51091;DHT22;37136;43.614;3.908;2022-10-18T08:15:37;19.70;1.00
51091;DHT22;37136;43.614;3.908;2022-10-18T08:18:02;19.80;1.00
51091;DHT22;37136;43.614;3.908;2022-10-18T08:20:28;19.70;1.00
51091;DHT22;37136;43.614;3.908;2022-10-18T08:22:55;19.70;1.00
51091;DHT22;37136;43.614;3.908;2022-10-18T08:25:21;19.80;1.00
51091;DHT22;37136;43.614;3.908;2022-10-18T08:27:46;19.90;1.00
51091;DHT22;37136;43.614;3.908;2022-10-18T08:30:12;19.80;1.00
51091;DHT22;37136;43.614;3.908;2022-10-18T08:32:38;19.90;1.00
51091;DHT22;37136;43.614;3.908;2022-10-18T08:35:04;19.90;1.00
51091;DHT22;37136;43.614;3.908;2022-10-18T08:37:30;20.00;1.00
51091;DHT22;37136;43.614;3.908;2022-10-18T08:39:56;20.00;1.00
51091;DHT22;37136;43.614;3.908;2022-10-18T08:42:47;20.00;1.00
51091;DHT22;37136;43.614;3.908;2022-10-18T08:45:17;20.10;1.00
51091;DHT22;37136;43.614;3.908;2022-10-18T08:47:45;20.30;1.00
51091;DHT22;37136;43.614;3.908;2022-10-18T08:50:19;20.40;1.00
51091;DHT22;37136;43.614;3.908;2022-10-18T08:57:47;20.60;1.00
51091;DHT22;37136;43.614;3.908;2022-10-18T09:00:21;20.40;1.00
51091;DHT22;37136;43.614;3.908;2022-10-18T09:05:55;20.70;1.00
51091;DHT22;37136;43.614;3.908;2022-10-18T09:17:06;20.50;1.00
51091;DHT22;37136;43.614;3.908;2022-10-18T09:25:43;20.50;1.00
51091;DHT22;37136;43.614;3.908;2022-10-18T09:33:49;20.40;1.00
51091;DHT22;37136;43.614;3.908;2022-10-18T09:36:23;20.60;1.00
51091;DHT22;37136;43.614;3.908;2022-10-18T09:38:54;20.80;1.00
51091;DHT22;37136;43.614;3.908;2022-10-18T09:41:48;20.70;1.00
51091;DHT22;37136;43.614;3.908;2022-10-18T09:44:24;20.70;1.00
51091;DHT22;37136;43.614;3.908;2022-10-18T09:47:02;20.90;1.00
51091;DHT22;37136;43.614;3.908;2022-10-18T09:49:42;20.90;1.00
51091;DHT22;37136;43.614;3.908;2022-10-18T09:52:16;20.80;1.00
51091;DHT22;37136;43.614;3.908;2022-10-18T09:54:48;20.70;1.00
51091;DHT22;37136;43.614;3.908;2022-10-18T09:57:21;20.70;1.00
51091;DHT22;37136;43.614;3.908;2022-10-18T09:59:49;20.80;1.00
51091;DHT22;37136;43.614;3.908;2022-10-18T10:02:18;20.90;1.00
51091;DHT22;37136;43.614;3.908;2022-10-18T10:04:44;21.00;1.00
51091;DHT22;37136;43.614;3.908;2022-10-18T10:07:20;21.10;1.00
51091;DHT22;37136;43.614;3.908;2022-10-18T10:09:57;21.30;1.00
51091;DHT22;37136;43.614;3.908;2022-10-18T10:12:41;21.50;1.00
51091;DHT22;37136;43.614;3.908;2022-10-18T10:15:16;21.80;1.00
51091;DHT22;37136;43.614;3.908;2022-10-18T10:20:24;21.80;1.00
51091;DHT22;37136;43.614;3.908;2022-10-18T10:22:52;21.70;1.00
51091;DHT22;37136;43.614;3.908;2022-10-18T10:25:38;21.60;1.00
51091;DHT22;37136;43.614;3.908;2022-10-18T10:28:21;21.50;1.00
51091;DHT22;37136;43.614;3.908;2022-10-18T10:30:47;21.60;1.00
51091;DHT22;37136;43.614;3.908;2022-10-18T10:33:33;21.50;1.00
51091;DHT22;37136;43.614;3.908;2022-10-18T10:36:02;21.60;1.00
51091;DHT22;37136;43.614;3.908;2022-10-18T10:38:29;21.60;1.00
51091;DHT22;37136;43.614;3.908;2022-10-18T10:40:56;21.50;1.00
51091;DHT22;37136;43.614;3.908;2022-10-18T10:43:33;21.50;1.00
51091;DHT22;37136;43.614;3.908;2022-10-18T10:48:40;21.40;1.00
51091;DHT22;37136;43.614;3.908;2022-10-18T10:51:09;21.50;1.00
51091;DHT22;37136;43.614;3.908;2022-10-18T10:53:55;21.40;1.00
51091;DHT22;37136;43.614;3.908;2022-10-18T10:56:34;21.50;1.00
51091;DHT22;37136;43.614;3.908;2022-10-18T10:59:14;21.60;1.00
51091;DHT22;37136;43.614;3.908;2022-10-18T11:01:41;21.60;1.00
51091;DHT22;37136;43.614;3.908;2022-10-18T11:04:27;21.60;1.00
51091;DHT22;37136;43.614;3.908;2022-10-18T11:12:42;22.00;1.00
51091;DHT22;37136;43.614;3.908;2022-10-18T11:15:17;22.10;1.00
51091;DHT22;37136;43.614;3.908;2022-10-18T11:23:26;21.90;1.00
51091;DHT22;37136;43.614;3.908;2022-10-18T11:31:58;22.00;1.00
51091;DHT22;37136;43.614;3.908;2022-10-18T11:48:03;22.20;1.00
51091;DHT22;37136;43.614;3.908;2022-10-18T11:53:15;22.50;1.00
51091;DHT22;37136;43.614;3.908;2022-10-18T12:04:22;22.70;1.00
51091;DHT22;37136;43.614;3.908;2022-10-18T12:06:51;22.70;1.00
51091;DHT22;37136;43.614;3.908;2022-10-18T12:15:15;22.60;1.00
51091;DHT22;37136;43.614;3.908;2022-10-18T12:17:49;22.80;1.00
51091;DHT22;37136;43.614;3.908;2022-10-18T12:25:38;23.00;1.00
51091;DHT22;37136;43.614;3.908;2022-10-18T12:31:22;22.80;1.00
51091;DHT22;37136;43.614;3.908;2022-10-18T12:33:52;22.80;1.00
51091;DHT22;37136;43.614;3.908;2022-10-18T12:39:01;22.40;1.00
51091;DHT22;37136;43.614;3.908;2022-10-18T12:41:33;22.30;1.00
51091;DHT22;37136;43.614;3.908;2022-10-18T12:46:52;22.00;1.00
51091;DHT22;37136;43.614;3.908;2022-10-18T12:49:29;22.10;1.00
51091;DHT22;37136;43.614;3.908;2022-10-18T12:51:58;22.30;1.00
51091;DHT22;37136;43.614;3.908;2022-10-18T12:54:30;22.50;1.00
51091;DHT22;37136;43.614;3.908;2022-10-18T12:56:57;22.70;1.00
51091;DHT22;37136;43.614;3.908;2022-10-18T13:09:35;22.90;1.00
51091;DHT22;37136;43.614;3.908;2022-10-18T13:20:08;23.00;1.00
51091;DHT22;37136;43.614;3.908;2022-10-18T13:22:41;23.10;1.00
51091;DHT22;37136;43.614;3.908;2022-10-18T13:39:35;22.60;1.00
51091;DHT22;37136;43.614;3.908;2022-10-18T13:42:30;22.60;1.00
51091;DHT22;37136;43.614;3.908;2022-10-18T13:49:04;22.50;1.00
51091;DHT22;37136;43.614;3.908;2022-10-18T14:06:14;22.60;1.00
51091;DHT22;37136;43.614;3.908;2022-10-18T14:11:55;22.50;1.00
51091;DHT22;37136;43.614;3.908;2022-10-18T14:14:29;22.40;1.00
51091;DHT22;37136;43.614;3.908;2022-10-18T14:20:17;22.50;1.00
51091;DHT22;37136;43.614;3.908;2022-10-18T14:22:52;22.50;1.00
51091;DHT22;37136;43.614;3.908;2022-10-18T14:25:26;22.40;1.00
51091;DHT22;37136;43.614;3.908;2022-10-18T14:28:17;22.50;1.00
51091;DHT22;37136;43.614;3.908;2022-10-18T14:31:03;22.60;1.00
51091;DHT22;37136;43.614;3.908;2022-10-18T14:33:56;22.80;1.00
51091;DHT22;37136;43.614;3.908;2022-10-18T14:36:38;22.90;1.00
51091;DHT22;37136;43.614;3.908;2022-10-18T14:39:12;22.80;1.00
51091;DHT22;37136;43.614;3.908;2022-10-18T14:41:52;23.10;1.00
51091;DHT22;37136;43.614;3.908;2022-10-18T14:44:25;23.10;1.00
51091;DHT22;37136;43.614;3.908;2022-10-18T14:49:45;22.90;1.00
51091;DHT22;37136;43.614;3.908;2022-10-18T14:52:18;22.90;1.00
51091;DHT22;37136;43.614;3.908;2022-10-18T14:54:45;22.90;1.00
51091;DHT22;37136;43.614;3.908;2022-10-18T14:57:50;22.90;1.00
51091;DHT22;37136;43.614;3.908;2022-10-18T15:00:22;22.90;1.00
51091;DHT22;37136;43.614;3.908;2022-10-18T15:02:50;22.60;1.00
51091;DHT22;37136;43.614;3.908;2022-10-18T15:07:43;22.40;1.00
51091;DHT22;37136;43.614;3.908;2022-10-18T15:10:24;22.50;1.00
51091;DHT22;37136;43.614;3.908;2022-10-18T15:12:52;22.60;1.00
51091;DHT22;37136;43.614;3.908;2022-10-18T15:15:24;22.60;1.00
51091;DHT22;37136;43.614;3.908;2022-10-18T15:17:51;22.70;1.00
51091;DHT22;37136;43.614;3.908;2022-10-18T15:20:30;22.70;1.00
51091;DHT22;37136;43.614;3.908;2022-10-18T15:23:24;22.70;1.00
51091;DHT22;37136;43.614;3.908;2022-10-18T15:25:58;22.50;1.00
51091;DHT22;37136;43.614;3.908;2022-10-18T15:28:38;22.40;1.00
51091;DHT22;37136;43.614;3.908;2022-10-18T15:31:05;22.70;1.00
51091;DHT22;37136;43.614;3.908;2022-10-18T15:33:32;22.70;1.00
51091;DHT22;37136;43.614;3.908;2022-10-18T15:36:09;22.50;1.00
51091;DHT22;37136;43.614;3.908;2022-10-18T15:38:36;22.40;1.00
51091;DHT22;37136;43.614;3.908;2022-10-18T15:44:14;22.30;1.00
51091;DHT22;37136;43.614;3.908;2022-10-18T15:46:43;22.20;1.00
51091;DHT22;37136;43.614;3.908;2022-10-18T15:54:34;22.00;1.00
51091;DHT22;37136;43.614;3.908;2022-10-18T15:57:06;22.00;1.00
51091;DHT22;37136;43.614;3.908;2022-10-18T15:59:32;21.90;1.00
51091;DHT22;37136;43.614;3.908;2022-10-18T16:01:59;22.00;1.00
51091;DHT22;37136;43.614;3.908;2022-10-18T16:04:27;22.10;1.00
51091;DHT22;37136;43.614;3.908;2022-10-18T16:06:56;22.00;1.00
51091;DHT22;37136;43.614;3.908;2022-10-18T16:09:24;22.10;1.00
51091;DHT22;37136;43.614;3.908;2022-10-18T16:11:50;21.90;1.00
51091;DHT22;37136;43.614;3.908;2022-10-18T16:14:17;21.80;1.00
51091;DHT22;37136;43.614;3.908;2022-10-18T16:16:43;21.80;1.00
51091;DHT22;37136;43.614;3.908;2022-10-18T16:19:13;21.70;1.00
51091;DHT22;37136;43.614;3.908;2022-10-18T16:21:40;21.70;1.00
51091;DHT22;37136;43.614;3.908;2022-10-18T16:24:06;21.60;1.00
51091;DHT22;37136;43.614;3.908;2022-10-18T16:26:33;21.60;1.00
51091;DHT22;37136;43.614;3.908;2022-10-18T16:29:00;21.40;1.00
51091;DHT22;37136;43.614;3.908;2022-10-18T16:31:29;21.30;1.00
51091;DHT22;37136;43.614;3.908;2022-10-18T16:33:55;21.10;1.00
51091;DHT22;37136;43.614;3.908;2022-10-18T16:36:26;21.00;1.00
51091;DHT22;37136;43.614;3.908;2022-10-18T16:38:54;20.90;1.00
51091;DHT22;37136;43.614;3.908;2022-10-18T16:41:20;20.90;1.00
51091;DHT22;37136;43.614;3.908;2022-10-18T16:43:47;20.70;1.00
51091;DHT22;37136;43.614;3.908;2022-10-18T16:46:19;20.60;1.00
51091;DHT22;37136;43.614;3.908;2022-10-18T16:48:46;20.60;1.00
51091;DHT22;37136;43.614;3.908;2022-10-18T16:51:12;20.50;1.00
51091;DHT22;37136;43.614;3.908;2022-10-18T16:53:38;20.50;1.50
51091;DHT22;37136;43.614;3.908;2022-10-18T16:56:09;20.40;6.70
51091;DHT22;37136;43.614;3.908;2022-10-18T16:58:36;20.30;11.60
51091;DHT22;37136;43.614;3.908;2022-10-18T17:01:02;20.20;13.00
51091;DHT22;37136;43.614;3.908;2022-10-18T17:03:28;20.20;15.20
51091;DHT22;37136;43.614;3.908;2022-10-18T17:05:53;20.20;18.90
51091;DHT22;37136;43.614;3.908;2022-10-18T17:08:26;20.10;17.10
51091;DHT22;37136;43.614;3.908;2022-10-18T17:10:55;20.10;16.00
51091;DHT22;37136;43.614;3.908;2022-10-18T17:13:21;20.10;17.40
51091;DHT22;37136;43.614;3.908;2022-10-18T17:15:48;20.00;20.30
51091;DHT22;37136;43.614;3.908;2022-10-18T17:18:20;19.90;20.50
51091;DHT22;37136;43.614;3.908;2022-10-18T17:20:47;20.00;20.50
51091;DHT22;37136;43.614;3.908;2022-10-18T17:23:13;20.00;21.10
51091;DHT22;37136;43.614;3.908;2022-10-18T17:25:40;19.90;22.30
51091;DHT22;37136;43.614;3.908;2022-10-18T17:28:13;19.90;22.40
51091;DHT22;37136;43.614;3.908;2022-10-18T17:30:39;19.80;22.40
51091;DHT22;37136;43.614;3.908;2022-10-18T17:33:05;19.90;21.50
51091;DHT22;37136;43.614;3.908;2022-10-18T17:35:31;19.90;21.30
51091;DHT22;37136;43.614;3.908;2022-10-18T17:37:57;19.90;20.60
51091;DHT22;37136;43.614;3.908;2022-10-18T17:40:23;19.90;21.30
51091;DHT22;37136;43.614;3.908;2022-10-18T17:42:50;19.90;20.30
51091;DHT22;37136;43.614;3.908;2022-10-18T17:45:19;19.90;20.30
51091;DHT22;37136;43.614;3.908;2022-10-18T17:47:46;19.80;21.80
51091;DHT22;37136;43.614;3.908;2022-10-18T17:50:12;19.70;23.80
51091;DHT22;37136;43.614;3.908;2022-10-18T17:52:45;19.70;26.20
51091;DHT22;37136;43.614;3.908;2022-10-18T17:55:12;19.50;27.60
51091;DHT22;37136;43.614;3.908;2022-10-18T17:57:40;19.60;29.40
51091;DHT22;37136;43.614;3.908;2022-10-18T18:00:08;19.50;29.50
51091;DHT22;37136;43.614;3.908;2022-10-18T18:02:36;19.50;29.30
51091;DHT22;37136;43.614;3.908;2022-10-18T18:05:03;19.50;29.40
51091;DHT22;37136;43.614;3.908;2022-10-18T18:07:30;19.60;29.10
51091;DHT22;37136;43.614;3.908;2022-10-18T18:09:56;19.70;29.70
51091;DHT22;37136;43.614;3.908;2022-10-18T18:12:22;19.80;29.10
51091;DHT22;37136;43.614;3.908;2022-10-18T18:14:48;19.90;26.60
51091;DHT22;37136;43.614;3.908;2022-10-18T18:17:13;19.90;25.80
51091;DHT22;37136;43.614;3.908;2022-10-18T18:19:39;19.90;25.80
51091;DHT22;37136;43.614;3.908;2022-10-18T18:22:05;20.00;26.30
51091;DHT22;37136;43.614;3.908;2022-10-18T18:24:31;20.00;24.60
51091;DHT22;37136;43.614;3.908;2022-10-18T18:26:57;20.20;21.70
51091;DHT22;37136;43.614;3.908;2022-10-18T18:29:25;20.10;23.20
51091;DHT22;37136;43.614;3.908;2022-10-18T18:31:52;20.10;24.50
51091;DHT22;37136;43.614;3.908;2022-10-18T18:34:18;20.00;25.60
51091;DHT22;37136;43.614;3.908;2022-10-18T18:36:46;20.10;24.40
51091;DHT22;37136;43.614;3.908;2022-10-18T18:39:23;20.20;22.00
51091;DHT22;37136;43.614;3.908;2022-10-18T18:41:51;20.30;19.50
51091;DHT22;37136;43.614;3.908;2022-10-18T18:44:18;20.10;21.90
51091;DHT22;37136;43.614;3.908;2022-10-18T18:46:45;20.10;23.60
51091;DHT22;37136;43.614;3.908;2022-10-18T18:49:12;20.10;22.20
51091;DHT22;37136;43.614;3.908;2022-10-18T18:51:39;20.10;23.00
51091;DHT22;37136;43.614;3.908;2022-10-18T18:54:07;20.00;24.40
51091;DHT22;37136;43.614;3.908;2022-10-18T18:56:33;20.00;23.80
51091;DHT22;37136;43.614;3.908;2022-10-18T18:58:59;20.00;24.30
51091;DHT22;37136;43.614;3.908;2022-10-18T19:01:28;20.10;23.30
51091;DHT22;37136;43.614;3.908;2022-10-18T19:03:54;20.10;22.10
51091;DHT22;37136;43.614;3.908;2022-10-18T19:06:23;20.10;20.70
51091;DHT22;37136;43.614;3.908;2022-10-18T19:08:50;20.00;22.20